Time;durP1;ratioP1;P1;durP2;ratioP2;P2;SDS_P1;SDS_P2;PMS_P1;PMS_P2;Temp;Humidity;BMP_temperature;BMP_pressure;BME280_temperature;BME280_humidity;BME280_pressure;Samples;Min_cycle;Max_cycle;Signal;HPM_P1;HPM_P2
2023/02/13 00:00:48;;;;;;;12.50;7.88;;;7.50;99.90;;;6.14;100.00;103201.94;4967327;28;20680;-77
2023/02/13 00:03:14;;;;;;;11.95;7.95;;;7.50;99.90;;;6.16;100.00;103197.63;4938210;28;20050;-79
2023/02/13 00:05:39;;;;;;;12.20;7.22;;;7.50;99.90;;;6.13;100.00;103192.31;4986214;28;20113;-78
2023/02/13 00:08:08;;;;;;;11.05;7.13;;;;;;;6.13;100.00;103200.16;4930743;28;20406;-78
2023/02/13 00:10:34;;;;;;;13.15;6.70;;;7.50;99.90;;;6.05;100.00;103194.88;4979736;28;20049;-79
2023/02/13 00:13:00;;;;;;;12.00;6.55;;;7.50;99.90;;;6.07;100.00;103192.25;5021930;28;20452;-78
2023/02/13 00:15:26;;;;;;;9.88;5.95;;;7.50;99.90;;;6.05;100.00;103183.53;5027406;28;20125;-79
2023/02/13 00:17:52;;;;;;;11.63;6.65;;;7.50;99.90;;;6.08;100.00;103189.66;4971504;28;20092;-78
2023/02/13 00:20:17;;;;;;;11.80;5.90;;;7.50;99.90;;;6.07;100.00;103184.41;5002117;28;20087;-78
2023/02/13 00:22:43;;;;;;;11.65;6.15;;;7.50;99.90;;;6.09;100.00;103180.97;4938797;28;20040;-78
2023/02/13 00:25:11;;;;;;;12.07;6.20;;;7.50;99.90;;;6.08;100.00;103178.34;4974479;28;20037;-78
2023/02/13 00:27:37;;;;;;;13.63;6.80;;;7.50;99.90;;;6.12;100.00;103181.00;4966583;28;20055;-79
2023/02/13 00:30:06;;;;;;;9.95;5.85;;;7.50;99.90;;;6.09;100.00;103186.19;4961257;28;20053;-77
2023/02/13 00:32:32;;;;;;;9.65;5.50;;;7.50;99.90;;;6.09;100.00;103183.59;4962868;28;20064;-78
2023/02/13 00:34:57;;;;;;;9.70;4.90;;;7.50;99.90;;;6.08;100.00;103175.72;4975967;28;20660;-77
2023/02/13 00:37:24;;;;;;;9.55;4.75;;;7.50;99.90;;;6.09;99.75;103187.91;4970399;28;20062;-79
2023/02/13 00:39:56;;;;;;;9.50;5.20;;;7.50;99.90;;;6.12;99.24;103191.47;4982518;28;20045;-79
2023/02/13 00:42:25;;;;;;;8.75;4.78;;;7.50;99.90;;;6.11;98.67;103187.09;4980328;28;20048;-78
2023/02/13 00:44:52;;;;;;;9.23;4.90;;;7.50;99.90;;;6.08;98.64;103192.28;4957369;28;20038;-79
2023/02/13 00:47:25;;;;;;;7.15;3.95;;;7.40;99.90;;;6.06;97.86;103186.16;4984456;28;20187;-79
2023/02/13 00:49:50;;;;;;;8.80;4.18;;;7.50;99.90;;;6.06;97.47;103191.38;4961043;28;20858;-78
2023/02/13 00:52:16;;;;;;;6.22;4.18;;;7.50;99.90;;;6.05;97.02;103194.88;4959931;28;20128;-79
2023/02/13 00:54:42;;;;;;;8.18;4.70;;;7.40;99.90;;;6.06;97.03;103198.34;4951096;28;20051;-78
2023/02/13 00:57:08;;;;;;;8.90;4.30;;;7.40;99.90;;;6.02;96.50;103200.03;4975880;28;20026;-77
2023/02/13 00:59:39;;;;;;;8.05;3.78;;;7.40;99.90;;;6.03;96.12;103191.34;4981351;28;20398;-78
2023/02/13 01:02:05;;;;;;;8.77;4.70;;;7.40;99.90;;;6.05;95.98;103191.38;4963768;28;20038;-78
2023/02/13 01:04:31;;;;;;;8.00;4.57;;;7.40;99.90;;;6.04;95.99;103203.56;4943777;28;20091;-78
2023/02/13 01:06:57;;;;;;;9.30;4.40;;;7.40;99.90;;;6.07;95.75;103205.31;4986839;28;20100;-77
2023/02/13 01:09:22;;;;;;;7.38;4.50;;;7.50;99.90;;;6.06;96.24;103201.84;4974241;28;20037;-78
2023/02/13 01:11:50;;;;;;;8.32;4.63;;;7.50;99.90;;;6.05;96.15;103204.47;4985516;28;20128;-78
2023/02/13 01:14:18;;;;;;;7.47;5.38;;;7.40;99.90;;;6.00;96.15;103198.28;4980832;28;20380;-79
2023/02/13 01:16:44;;;;;;;10.05;5.63;;;7.40;99.90;;;6.03;96.44;103193.09;4950557;28;20043;-78
2023/02/13 01:19:10;;;;;;;9.38;5.55;;;7.40;99.90;;;6.04;96.69;103200.06;4938696;28;20730;-77
2023/02/13 01:21:36;;;;;;;13.52;6.45;;;7.40;99.90;;;6.04;96.61;103187.00;4975581;28;20041;-77
2023/02/13 01:24:10;;;;;;;9.77;5.63;;;7.40;99.90;;;6.02;97.27;103196.56;4996373;28;20101;-78
2023/02/13 01:26:36;;;;;;;10.90;6.53;;;7.40;99.90;;;6.02;97.38;103199.19;4955275;28;20045;-78
2023/02/13 01:29:02;;;;;;;9.48;5.45;;;7.40;99.90;;;6.01;97.53;103198.31;4965971;28;20064;-78
2023/02/13 01:31:28;;;;;;;13.70;6.40;;;7.40;99.90;;;6.01;97.24;103197.44;4973628;28;20037;-77
2023/02/13 01:34:04;;;;;;;11.75;6.15;;;7.40;99.90;;;5.99;97.90;103191.31;4957233;28;20058;-79
2023/02/13 01:36:30;;;;;;;13.02;6.75;;;7.40;99.90;;;5.99;97.54;103192.19;4986403;28;20521;-78
2023/02/13 01:38:57;;;;;;;14.30;7.45;;;7.40;99.90;;;6.01;97.63;103192.22;5003947;28;20048;-77
2023/02/13 01:41:35;;;;;;;16.60;7.65;;;7.40;99.90;;;5.99;98.09;103192.19;4980504;28;20560;-77
2023/02/13 01:44:01;;;;;;;13.07;7.70;;;7.40;99.90;;;5.96;98.19;103186.91;5019169;28;20489;-79
2023/02/13 01:46:43;;;;;;;17.67;8.05;;;7.40;99.90;;;5.94;98.47;103192.13;4969519;28;20117;-78
2023/02/13 01:49:19;;;;;;;17.73;8.82;;;7.30;99.90;;;5.95;98.19;103191.25;4980379;28;20057;-77
2023/02/13 01:51:48;;;;;;;17.70;7.80;;;7.30;99.90;;;5.96;98.50;103186.91;4990965;28;20175;-78
2023/02/13 01:54:29;;;;;;;14.30;8.13;;;7.30;99.90;;;5.94;98.61;103181.66;4953486;28;20037;-78
2023/02/13 01:57:07;;;;;;;14.48;8.43;;;7.30;99.90;;;5.92;98.56;103177.25;4973546;28;20045;-78
2023/02/13 02:00:04;;;;;;;15.85;7.72;;;7.30;99.90;;;5.91;98.88;103171.13;4981266;28;20111;-78
2023/02/13 02:02:36;;;;;;;14.63;8.10;;;7.30;99.90;;;5.91;98.67;103173.72;4970612;28;20661;-77
2023/02/13 02:05:07;;;;;;;16.17;8.35;;;7.30;99.90;;;5.90;98.60;103166.75;4932901;28;20038;-78
2023/02/13 02:07:43;;;;;;;15.55;8.07;;;7.30;99.90;;;5.90;98.88;103172.00;4949766;28;20787;-78
2023/02/13 02:10:20;;;;;;;15.07;8.43;;;7.20;99.90;;;5.90;99.02;103168.50;4963046;28;20169;-77
2023/02/13 02:13:05;;;;;;;16.00;8.00;;;7.30;99.90;;;5.84;99.09;103168.44;4956152;28;20033;-77
2023/02/13 02:15:31;;;;;;;14.88;7.50;;;7.20;99.90;;;5.81;98.72;103166.66;4971243;28;20025;-78
2023/02/13 02:18:02;;;;;;;13.15;7.35;;;7.20;99.90;;;5.78;99.15;103158.75;4965769;28;20579;-78
2023/02/13 02:21:08;;;;;;;15.80;7.95;;;7.20;99.90;;;5.81;99.16;103161.44;4991306;28;22633;-77
2023/02/13 02:24:25;;;;;;;18.13;7.95;;;7.20;99.90;;;5.76;99.12;103158.72;4992478;28;20053;-78
2023/02/13 02:27:23;;;;;;;14.32;7.55;;;7.20;99.90;;;5.77;99.33;103159.63;4984118;28;20509;-77
2023/02/13 02:30:31;;;;;;;18.27;7.28;;;7.20;99.90;;;5.78;98.96;103163.13;4984247;28;20445;-77
2023/02/13 02:33:06;;;;;;;;;;;7.20;99.90;;;5.73;99.05;103156.09;5003532;28;20091;-78
2023/02/13 02:36:22;;;;;;;12.93;7.13;;;7.20;99.90;;;5.73;98.83;103163.94;4925121;28;20016;-78
2023/02/13 02:38:50;;;;;;;14.98;7.57;;;7.10;99.90;;;5.70;99.09;103171.75;4983416;28;20029;-78
2023/02/13 02:41:44;;;;;;;19.08;7.95;;;7.10;99.90;;;5.72;99.39;103167.44;4990153;28;20064;-78
2023/02/13 02:44:32;;;;;;;13.52;6.85;;;7.10;99.90;;;5.73;99.33;103165.69;4980393;28;20037;-78
2023/02/13 02:50:19;;;;;;;11.30;6.57;;;7.10;99.90;;;5.69;98.91;103156.91;5010399;28;20040;-78
2023/02/13 02:53:15;;;;;;;11.10;6.75;;;7.10;99.90;;;5.68;98.62;103147.31;4995459;28;20043;-78
2023/02/13 02:56:10;;;;;;;14.40;6.10;;;7.00;99.90;;;5.65;98.79;103142.03;4993906;28;20037;-78
2023/02/13 03:08:09;;;;;;;13.88;5.57;;;7.00;99.90;;;5.63;96.97;103146.38;4982307;28;20097;-78
2023/02/13 03:13:52;;;;;;;10.60;5.57;;;7.00;99.90;;;5.68;96.30;103130.75;5002222;28;20187;-78
2023/02/13 03:23:12;;;;;;;9.50;4.90;;;7.10;99.90;;;5.70;95.92;103144.72;4984329;28;20541;-78
2023/02/13 03:26:02;;;;;;;11.25;5.20;;;7.10;99.90;;;5.68;95.40;103131.66;5001222;28;20083;-77
2023/02/13 03:32:11;;;;;;;15.50;4.88;;;7.10;99.90;;;5.65;95.15;103144.66;5002814;28;20563;-77
2023/02/13 03:37:53;;;;;;;12.57;5.03;;;7.00;99.90;;;5.63;94.26;103148.13;4990147;28;20114;-78
2023/02/13 03:40:35;;;;;;;13.52;4.95;;;7.00;99.90;;;5.65;94.46;103149.88;4979638;28;20544;-77
2023/02/13 03:43:11;;;;;;;11.23;4.15;;;7.00;99.90;;;5.64;93.99;103144.66;5007999;28;20747;-77
2023/02/13 03:45:53;;;;;;;11.30;4.57;;;7.10;99.90;;;5.67;94.15;103153.41;4996149;28;20655;-77
2023/02/13 03:51:46;;;;;;;7.97;3.50;;;7.10;99.90;;;5.67;93.59;103149.91;5012015;28;20075;-78
2023/02/13 04:00:09;;;;;;;11.90;4.60;;;7.10;99.90;;;5.67;92.99;103155.13;5006702;28;20052;-78
2023/02/13 04:02:48;;;;;;;8.85;4.18;;;7.10;99.90;;;5.71;92.73;103159.56;4988631;28;20061;-78
2023/02/13 04:05:26;;;;;;;9.98;3.97;;;7.10;99.90;;;5.70;92.87;103163.00;4972660;28;20087;-78
2023/02/13 04:07:54;;;;;;;7.82;3.50;;;7.10;99.90;;;5.71;92.71;103162.16;4980254;28;20042;-78
2023/02/13 04:10:23;;;;;;;12.93;3.67;;;7.10;99.90;;;5.70;92.52;103165.63;4970131;28;20037;-78
2023/02/13 04:13:17;;;;;;;7.68;3.30;;;7.10;99.90;;;5.70;92.70;103161.28;4961598;28;20107;-78
2023/02/13 04:15:56;;;;;;;11.68;3.60;;;7.10;99.90;;;5.69;92.65;103161.28;4976749;28;20566;-77
2023/02/13 04:18:31;;;;;;;10.82;3.60;;;7.10;99.90;;;5.66;92.87;103169.06;4976627;28;20467;-78
2023/02/13 04:21:05;;;;;;;10.05;4.25;;;7.10;99.90;;;5.66;92.95;103169.06;4943440;28;20061;-78
2023/02/13 04:23:32;;;;;;;9.00;4.28;;;7.10;99.90;;;5.63;92.99;103163.81;4951782;28;20112;-78
2023/02/13 04:26:05;;;;;;;9.45;4.10;;;7.10;99.90;;;5.62;92.56;103162.06;4963672;28;20425;-78
2023/02/13 04:28:31;;;;;;;11.25;3.75;;;7.00;99.90;;;5.59;92.93;103155.03;4956054;28;20032;-78
2023/02/13 04:30:57;;;;;;;9.93;4.32;;;7.00;99.90;;;5.58;93.19;103160.25;5004452;28;20035;-78
2023/02/13 04:33:23;;;;;;;7.68;3.95;;;7.00;99.90;;;5.60;93.04;103159.41;4964677;28;20431;-78
2023/02/13 04:35:56;;;;;;;12.57;4.35;;;7.00;99.90;;;5.62;93.17;103162.94;4950387;28;20131;-78
2023/02/13 04:38:22;;;;;;;11.98;3.83;;;7.00;99.90;;;5.60;92.99;103158.53;4964967;28;20038;-77
2023/02/13 04:40:48;;;;;;;10.38;3.88;;;7.00;99.90;;;5.61;92.67;103160.28;4995680;28;20044;-78
2023/02/13 04:43:14;;;;;;;10.32;3.88;;;7.00;99.90;;;5.59;92.53;103152.41;4959819;28;20035;-78
2023/02/13 04:45:40;;;;;;;9.55;4.25;;;7.00;99.90;;;5.59;92.75;103164.63;4931877;28;20451;-78
2023/02/13 04:48:15;;;;;;;;;;;;;;;;;;;;;
2023/02/13 04:50:41;;;;;;;;;;;7.00;99.90;;;5.51;92.50;103159.31;4993617;28;21443;-78
2023/02/13 04:53:07;;;;;;;8.43;3.97;;;6.90;99.90;;;5.50;92.80;103155.78;4995178;28;19921;-78
2023/02/13 04:55:34;;;;;;;10.20;3.95;;;6.90;99.90;;;5.51;92.91;103152.34;4993620;28;20032;-78
2023/02/13 04:58:02;;;;;;;11.98;4.03;;;6.90;99.90;;;5.49;93.41;103159.28;4966888;28;20131;-78
2023/02/13 05:00:28;;;;;;;12.38;4.47;;;6.90;99.90;;;5.48;93.55;103152.28;4969136;28;20103;-77
2023/02/13 05:03:10;;;;;;;7.75;4.13;;;6.90;99.90;;;5.49;93.28;103156.66;4980879;28;20041;-78
2023/02/13 05:05:36;;;;;;;13.07;4.20;;;6.90;99.90;;;5.49;93.49;103158.41;5003511;28;20041;-77
2023/02/13 05:08:11;;;;;;;10.18;3.90;;;6.90;99.90;;;5.49;93.20;103154.06;4970120;28;20089;-78
2023/02/13 05:10:37;;;;;;;8.30;3.63;;;6.90;99.90;;;5.48;93.30;103162.72;4960474;28;20081;-77
2023/02/13 05:13:03;;;;;;;9.15;3.75;;;6.90;99.90;;;5.48;92.85;103165.34;4955666;28;20038;-76
2023/02/13 05:15:29;;;;;;;8.88;4.20;;;6.90;99.90;;;5.47;92.73;103162.72;4964630;28;20049;-78
2023/02/13 05:17:54;;;;;;;11.63;3.60;;;6.90;99.90;;;5.50;92.91;103162.75;4981225;28;20045;-78
2023/02/13 05:20:25;;;;;;;12.80;3.80;;;6.90;99.90;;;5.49;92.34;103167.13;4995380;28;20034;-78
2023/02/13 05:25:40;;;;;;;10.68;3.88;;;6.90;99.90;;;5.52;91.93;103166.28;4991372;28;20041;-76
2023/02/13 05:30:51;;;;;;;7.40;3.25;;;6.90;99.90;;;5.51;91.83;103170.63;5007091;23;20042;-78
2023/02/13 05:33:17;;;;;;;7.90;3.20;;;6.90;99.90;;;5.50;91.89;103170.59;4916107;28;20042;-77
2023/02/13 05:35:43;;;;;;;6.95;3.22;;;6.90;99.90;;;5.50;91.86;103166.25;4937003;28;20033;-78
2023/02/13 05:38:09;;;;;;;8.57;3.17;;;6.90;99.90;;;5.51;91.61;103173.25;4978644;28;20588;-77
2023/02/13 05:40:35;;;;;;;12.57;4.30;;;6.90;99.90;;;5.48;91.25;103177.53;4980828;28;20025;-78
2023/02/13 05:43:00;;;;;;;5.10;2.88;;;6.90;99.90;;;5.48;91.48;103174.94;4951760;28;20047;-77
2023/02/13 05:45:31;;;;;;;9.45;3.80;;;6.90;99.90;;;5.42;90.59;103170.50;4961907;28;20096;-78
2023/02/13 05:47:57;;;;;;;5.55;3.05;;;6.90;99.90;;;5.49;90.65;103181.91;4953801;28;20056;-77
2023/02/13 05:50:22;;;;;;;6.25;3.20;;;6.90;99.90;;;5.51;90.78;103185.44;4928776;28;20644;-77
2023/02/13 05:52:48;;;;;;;8.18;3.42;;;6.90;99.90;;;5.51;90.87;103186.31;4938068;28;20053;-78
2023/02/13 05:55:14;;;;;;;11.57;3.33;;;6.90;99.90;;;5.55;91.16;103193.34;4926150;28;20096;-77
2023/02/13 05:57:42;;;;;;;8.80;3.13;;;6.90;99.90;;;5.50;91.10;103186.28;4930688;28;20130;-77
2023/02/13 06:00:11;;;;;;;8.60;3.20;;;6.90;99.90;;;5.49;91.02;103195.84;4885184;28;20051;-77
2023/02/13 06:02:37;;;;;;;7.28;2.80;;;6.90;99.90;;;5.46;90.52;103202.75;4968670;28;20033;-77
2023/02/13 06:05:03;;;;;;;9.23;3.35;;;6.90;99.90;;;5.47;90.61;103205.41;4950983;28;20108;-77
2023/02/13 06:07:29;;;;;;;9.23;3.55;;;6.90;99.90;;;5.51;90.70;103207.22;4953071;28;20054;-77
2023/02/13 06:09:57;;;;;;;13.00;3.63;;;6.90;99.90;;;5.50;90.81;103202.81;4922577;28;20114;-78
2023/02/13 06:12:25;;;;;;;15.10;3.78;;;6.90;99.90;;;5.51;90.61;103206.34;4948896;28;20030;-77
2023/02/13 06:14:51;;;;;;;9.95;3.75;;;6.90;99.90;;;5.51;90.37;103206.34;4937999;28;21050;-77
2023/02/13 06:17:16;;;;;;;8.20;3.05;;;6.90;99.90;;;5.52;90.16;103211.56;4940380;28;20052;-77
2023/02/13 06:19:42;;;;;;;11.10;3.70;;;6.90;99.90;;;5.52;90.33;103197.63;4911769;28;20588;-77
2023/02/13 06:22:08;;;;;;;7.72;3.13;;;6.90;99.90;;;5.46;89.77;103198.41;4937952;28;20122;-77
2023/02/13 06:24:34;;;;;;;9.38;3.10;;;6.90;99.90;;;5.44;89.74;103202.78;4937359;28;20027;-77
2023/02/13 06:26:59;;;;;;;7.32;3.10;;;6.90;99.90;;;5.44;89.60;103194.94;4926167;28;20061;-77
2023/02/13 06:29:25;;;;;;;9.35;3.42;;;6.90;99.90;;;5.49;89.86;103201.09;4930948;28;20038;-78
2023/02/13 06:31:54;;;;;;;7.22;3.30;;;6.90;99.90;;;5.51;89.61;103199.38;4956877;23;20068;-77
2023/02/13 06:34:20;;;;;;;9.88;3.78;;;6.90;99.90;;;5.50;89.57;103197.59;4967438;28;20045;-77
2023/02/13 06:36:46;;;;;;;6.35;3.20;;;6.90;99.90;;;5.50;89.53;103196.72;4915339;28;20112;-78
2023/02/13 06:39:14;;;;;;;9.48;3.80;;;6.90;99.90;;;5.54;89.63;103208.97;4946524;28;20029;-77
2023/02/13 06:41:40;;;;;;;9.23;3.80;;;6.90;99.90;;;5.53;89.62;103210.72;4963073;28;20026;-77
2023/02/13 06:44:11;;;;;;;12.10;4.28;;;6.90;99.90;;;5.52;89.83;103203.72;4945573;28;20224;-78
2023/02/13 06:46:36;;;;;;;9.73;3.60;;;6.90;99.90;;;5.50;90.00;103210.66;4923629;28;20113;-77
2023/02/13 06:49:02;;;;;;;9.13;3.35;;;6.90;99.90;;;5.46;89.76;103210.59;4957738;28;20122;-77
2023/02/13 06:51:28;;;;;;;11.05;3.95;;;6.90;99.90;;;5.49;89.68;103214.16;4967013;28;20037;-77
2023/02/13 06:53:54;;;;;;;12.23;3.35;;;6.80;99.90;;;5.46;89.37;103213.22;4949906;28;20052;-78
2023/02/13 06:56:20;;;;;;;8.48;3.95;;;6.80;99.90;;;5.42;89.46;103214.94;4958497;28;20049;-77
2023/02/13 06:58:48;;;;;;;9.73;3.90;;;6.90;99.90;;;5.46;89.33;103215.84;4958040;28;20042;-76
2023/02/13 07:01:16;;;;;;;9.50;3.97;;;6.90;99.90;;;5.51;89.00;103215.06;4942114;28;20030;-77
2023/02/13 07:03:44;;;;;;;10.13;3.70;;;6.90;99.90;;;5.50;88.90;103220.25;4948328;28;20180;-78
2023/02/13 07:06:10;;;;;;;11.30;3.53;;;6.90;99.90;;;5.50;88.76;103217.63;4933956;28;20027;-76
2023/02/13 07:08:35;;;;;;;9.50;4.40;;;6.90;99.90;;;5.49;88.52;103219.38;4951846;28;20048;-78
2023/02/13 07:11:04;;;;;;;6.90;4.20;;;6.90;99.90;;;5.50;88.27;103220.25;4922223;28;20148;-77
2023/02/13 07:13:30;;;;;;;11.65;4.53;;;6.90;99.90;;;5.50;88.17;103213.28;4937991;28;20502;-77
2023/02/13 07:16:00;;;;;;;10.35;5.60;;;6.90;99.90;;;5.51;87.97;103215.06;4919577;28;20142;-77
2023/02/13 07:18:26;;;;;;;7.90;4.65;;;6.90;99.90;;;5.55;88.22;103226.44;4956314;28;20034;-77
2023/02/13 07:20:58;;;;;;;10.70;5.38;;;6.90;99.90;;;5.55;87.93;103223.81;4967303;28;20125;-77
2023/02/13 07:23:24;;;;;;;12.63;5.93;;;6.90;99.90;;;5.60;88.38;103229.13;4936497;28;20042;-77
2023/02/13 07:25:50;;;;;;;11.70;6.10;;;7.00;99.90;;;5.64;88.29;103230.91;4948575;28;20053;-76
2023/02/13 07:28:15;;;;;;;13.32;6.72;;;7.00;99.90;;;5.62;88.17;103228.28;4934934;28;20207;-77
2023/02/13 07:30:41;;;;;;;12.27;6.60;;;7.00;99.90;;;5.65;87.94;103230.03;4981460;28;20435;-78
2023/02/13 07:33:08;;;;;;;12.85;7.03;;;7.10;99.90;;;5.69;87.73;103229.22;4914693;28;20176;-78
2023/02/13 07:35:36;;;;;;;10.73;7.13;;;7.10;99.90;;;5.72;88.08;103224.94;4955366;28;20027;-77
2023/02/13 07:38:03;;;;;;;13.85;6.63;;;7.10;99.90;;;5.75;88.12;103224.97;4958608;28;20035;-77
2023/02/13 07:40:29;;;;;;;11.93;7.63;;;7.10;99.90;;;5.79;88.11;103230.22;4945411;28;20042;-76
2023/02/13 07:42:55;;;;;;;14.90;7.68;;;7.20;99.90;;;5.83;87.99;103218.94;4915790;28;20027;-77
2023/02/13 07:45:21;;;;;;;11.73;7.28;;;7.20;99.90;;;5.85;88.01;103223.38;4961215;28;20149;-77
2023/02/13 07:47:47;;;;;;;13.63;7.90;;;7.20;99.90;;;5.89;87.61;103232.09;4950855;28;20050;-76
2023/02/13 07:50:20;;;;;;;15.50;7.78;;;7.20;99.90;;;5.92;87.58;103222.56;4946604;28;20069;-77
2023/02/13 07:53:02;;;;;;;15.45;8.13;;;7.20;99.90;;;5.93;87.48;103229.56;4958116;28;20031;-77
2023/02/13 07:55:29;;;;;;;12.27;8.25;;;7.30;99.90;;;5.94;87.20;103233.97;4911780;28;20034;-77
2023/02/13 07:57:55;;;;;;;17.92;8.70;;;7.30;99.90;;;5.95;87.21;103230.47;4928304;28;20081;-78
2023/02/13 08:00:22;;;;;;;13.30;8.50;;;7.30;99.90;;;5.96;87.67;103233.97;4921487;28;20157;-77
2023/02/13 08:02:50;;;;;;;12.45;8.93;;;7.30;99.90;;;6.01;87.71;103239.28;4932326;28;20571;-77
2023/02/13 08:05:16;;;;;;;14.00;9.15;;;7.30;99.90;;;6.03;87.29;103243.66;4940868;28;20047;-76
2023/02/13 08:07:42;;;;;;;12.70;8.57;;;7.40;99.90;;;6.02;87.06;103241.03;4957860;28;20056;-78
2023/02/13 08:12:59;;;;;;;15.68;9.18;;;7.40;99.90;;;6.10;87.38;103239.38;4971152;28;20037;-78
2023/02/13 08:15:26;;;;;;;13.93;9.27;;;7.40;99.90;;;6.11;86.96;103244.66;4944802;28;20034;-77
2023/02/13 08:17:52;;;;;;;14.57;9.50;;;7.50;99.90;;;6.16;86.88;103242.09;4935795;28;20062;-78
2023/02/13 08:20:18;;;;;;;17.80;9.57;;;7.50;99.90;;;6.19;86.92;103247.34;4931521;28;20388;-77
2023/02/13 08:22:43;;;;;;;16.42;9.52;;;7.50;99.90;;;6.23;86.83;103238.66;4976654;28;20763;-77
2023/02/13 08:25:17;;;;;;;15.00;10.00;;;7.50;99.90;;;6.24;86.92;103243.06;4943784;28;20034;-77
2023/02/13 08:27:43;;;;;;;17.10;9.60;;;7.50;99.90;;;6.23;86.70;103240.41;4946629;28;20042;-78
2023/02/13 08:30:10;;;;;;;16.50;9.63;;;7.60;99.90;;;6.25;86.64;103242.19;4949183;28;20093;-77
2023/02/13 08:32:36;;;;;;;14.55;9.13;;;7.60;99.90;;;6.30;86.22;103248.34;4931948;28;20044;-76
2023/02/13 08:35:05;;;;;;;18.25;9.45;;;7.70;99.90;;;6.31;86.11;103247.50;4958289;28;20030;-78
2023/02/13 08:37:31;;;;;;;16.05;9.38;;;7.70;99.90;;;6.34;86.75;103247.50;4939957;28;20093;-77
2023/02/13 08:39:56;;;;;;;13.77;8.98;;;7.70;99.90;;;6.39;86.20;103255.41;4935369;28;20035;-76
2023/02/13 08:42:22;;;;;;;14.32;8.82;;;7.70;99.90;;;6.42;86.23;103246.75;4948207;28;21335;-77
2023/02/13 08:44:48;;;;;;;16.20;9.65;;;7.70;99.90;;;6.45;86.28;103258.09;4952424;28;20042;-77
2023/02/13 08:47:14;;;;;;;15.25;9.23;;;7.80;99.90;;;6.46;86.17;103259.88;4957520;28;20558;-78
2023/02/13 08:49:47;;;;;;;19.15;9.02;;;7.80;99.90;;;6.47;85.27;103265.97;4951221;28;20031;-78
2023/02/13 08:52:13;;;;;;;15.88;8.75;;;7.80;99.90;;;6.52;85.33;103262.56;4914978;28;20051;-78
2023/02/13 08:54:39;;;;;;;11.50;8.02;;;7.80;99.90;;;6.54;85.11;103263.47;4924008;28;20099;-78
2023/02/13 08:57:05;;;;;;;15.18;8.65;;;7.90;99.90;;;6.56;84.91;103266.06;4947195;28;20559;-77
2023/02/13 08:59:31;;;;;;;13.52;8.48;;;7.90;99.90;;;6.57;84.42;103273.94;4923597;28;20113;-77
2023/02/13 09:02:04;;;;;;;16.05;8.13;;;7.90;99.90;;;6.61;84.32;103267.03;4966992;28;20582;-77
2023/02/13 09:04:30;;;;;;;14.90;8.98;;;7.90;99.90;;;6.65;84.68;103260.97;4935590;28;20034;-78
2023/02/13 09:06:56;;;;;;;13.60;8.52;;;8.00;99.90;;;6.65;84.59;103268.81;4941074;28;20041;-77
2023/02/13 09:09:27;;;;;;;13.38;7.93;;;8.00;99.90;;;6.74;84.27;103275.88;4924698;28;20027;-78
2023/02/13 09:11:56;;;;;;;14.20;7.65;;;8.00;99.90;;;6.76;84.81;103269.78;4948861;28;20039;-78
2023/02/13 09:14:26;;;;;;;14.65;8.13;;;8.00;99.90;;;6.74;84.11;103266.28;4990215;28;20034;-77
2023/02/13 09:17:01;;;;;;;13.02;8.20;;;8.10;99.90;;;6.80;83.79;103270.69;4955455;28;20043;-78
2023/02/13 09:19:30;;;;;;;14.27;7.87;;;8.10;99.90;;;6.86;83.78;103270.75;4978836;28;20162;-76
2023/02/13 09:22:03;;;;;;;11.65;7.93;;;8.10;99.90;;;6.89;83.62;103265.56;4972072;28;20316;-77
2023/02/13 09:24:29;;;;;;;13.50;7.57;;;8.20;99.90;;;6.93;84.05;103264.72;4950444;28;20041;-77
2023/02/13 09:26:55;;;;;;;14.05;7.70;;;8.20;99.90;;;6.95;83.89;103277.81;4945585;28;20138;-77
2023/02/13 09:29:22;;;;;;;14.45;7.53;;;8.20;99.90;;;7.01;83.57;103275.25;4977256;28;20105;-78
2023/02/13 09:31:47;;;;;;;16.63;7.75;;;8.30;99.90;;;7.05;83.45;103270.94;4939763;28;20117;-77
2023/02/13 09:34:14;;;;;;;13.25;7.28;;;8.30;99.90;;;7.09;83.40;103280.56;4971171;28;20525;-77
2023/02/13 09:36:42;;;;;;;11.10;7.00;;;8.40;99.90;;;7.09;82.89;103283.19;4948836;28;20030;-77
2023/02/13 09:39:08;;;;;;;15.32;7.55;;;8.40;99.90;;;7.11;83.36;103279.72;4958817;28;20102;-77
2023/02/13 09:41:43;;;;;;;13.18;7.20;;;8.40;99.90;;;7.15;83.01;103283.25;4958462;28;20040;-78
2023/02/13 09:44:32;;;;;;;11.25;6.80;;;8.40;99.90;;;7.15;82.43;103281.50;4966081;28;21604;-77
2023/02/13 09:47:33;;;;;;;10.82;7.80;;;8.40;99.90;;;7.18;82.60;103283.25;4964723;28;20106;-77
2023/02/13 09:50:11;;;;;;;14.77;7.60;;;8.50;99.90;;;7.24;81.79;103277.22;4969583;28;20050;-77
2023/02/13 09:52:45;;;;;;;12.63;7.22;;;8.50;99.90;;;7.26;82.35;103278.97;4975672;28;20096;-76
2023/02/13 09:55:36;;;;;;;18.05;8.10;;;8.50;99.90;;;7.30;82.16;103282.47;4978564;28;20103;-78
2023/02/13 09:58:37;;;;;;;12.70;7.55;;;8.50;99.90;;;7.30;81.77;103282.47;4936144;28;20123;-78
2023/02/13 10:01:14;;;;;;;13.45;7.90;;;8.60;99.90;;;7.30;82.02;103287.72;4958160;28;20027;-78
2023/02/13 10:04:26;;;;;;;15.40;7.50;;;8.60;99.90;;;7.27;81.74;103280.72;4960891;28;20041;-77
2023/02/13 10:07:27;;;;;;;13.10;7.60;;;8.60;99.90;;;7.28;81.58;103282.47;4928066;28;20531;-78
2023/02/13 10:10:30;;;;;;;15.18;7.72;;;8.60;99.90;;;7.31;81.86;103300.84;4960224;28;20409;-78
2023/02/13 10:13:33;;;;;;;11.65;7.78;;;8.60;99.90;;;7.31;81.20;103294.72;4946757;28;20030;-78
2023/02/13 10:16:42;;;;;;;11.55;7.15;;;8.60;99.90;;;7.39;81.49;103295.69;4948212;28;20046;-76
2023/02/13 10:19:40;;;;;;;12.40;8.38;;;8.70;99.90;;;7.45;81.86;103290.47;4959084;28;20389;-78
2023/02/13 10:22:43;;;;;;;12.00;7.60;;;8.70;99.90;;;7.46;81.65;103284.34;4942634;28;20035;-77
2023/02/13 10:25:26;;;;;;;13.00;7.65;;;8.70;99.90;;;7.47;81.37;103293.97;4958459;28;20053;-77
2023/02/13 10:28:14;;;;;;;13.30;7.68;;;8.70;99.90;;;7.49;81.13;103294.84;4974423;28;20033;-78
2023/02/13 10:30:55;;;;;;;12.15;8.00;;;8.70;99.90;;;7.52;80.99;103294.03;4963774;28;20051;-78
2023/02/13 10:33:52;;;;;;;13.68;8.23;;;8.80;99.90;;;7.52;80.68;103289.66;4929499;28;20034;-78
2023/02/13 10:36:26;;;;;;;17.90;8.25;;;8.80;99.90;;;7.59;80.46;103295.81;4954279;28;20046;-76
2023/02/13 10:39:29;;;;;;;13.75;8.60;;;8.80;99.90;;;7.65;80.76;103289.75;4933525;28;20080;-78
2023/02/13 10:42:37;;;;;;;12.80;7.90;;;8.90;99.90;;;7.64;80.98;103293.22;4959679;28;20039;-78
2023/02/13 10:45:53;;;;;;;11.43;7.97;;;8.90;99.90;;;7.66;80.60;103292.34;4947014;28;20061;-77
2023/02/13 10:49:17;;;;;;;16.65;8.15;;;8.90;99.90;;;7.66;80.53;103283.63;4989146;28;20083;-77
2023/02/13 10:52:10;;;;;;;15.00;8.63;;;8.90;99.90;;;7.71;80.16;103292.38;4983562;28;20038;-78
2023/02/13 10:55:25;;;;;;;15.38;8.55;;;9.00;99.90;;;7.75;80.44;103287.19;4938729;28;20491;-77
2023/02/13 10:58:36;;;;;;;17.13;8.18;;;9.00;99.90;;;7.78;80.66;103287.19;4953919;28;20114;-78
2023/02/13 11:01:57;;;;;;;11.25;7.40;;;9.00;99.90;;;7.70;80.36;103282.78;4941239;28;20049;-78
2023/02/13 11:04:27;;;;;;;14.75;7.70;;;9.00;99.90;;;7.75;80.00;103288.91;4943716;28;20110;-77
2023/02/13 11:07:11;;;;;;;12.13;7.30;;;9.00;99.90;;;7.79;80.19;103285.44;4984398;28;20054;-78
2023/02/13 11:09:48;;;;;;;16.75;7.72;;;9.00;99.90;;;7.77;78.99;103276.69;4971590;28;20521;-78
2023/02/13 11:12:29;;;;;;;12.82;7.10;;;9.00;99.90;;;7.74;78.77;103281.91;4959967;28;20053;-78
2023/02/13 11:15:01;;;;;;;11.50;7.18;;;9.00;99.90;;;7.73;78.39;103274.91;4926121;28;20528;-78
2023/02/13 11:17:35;;;;;;;10.38;6.75;;;9.00;99.90;;;7.72;78.31;103274.03;4953415;28;20034;-78
2023/02/13 11:20:34;;;;;;;11.35;7.13;;;9.00;99.90;;;7.73;78.23;103274.91;4944633;28;20057;-79
2023/02/13 11:23:30;;;;;;;11.57;7.13;;;9.00;99.90;;;7.74;78.19;103279.31;4949185;28;20041;-78
2023/02/13 11:26:06;;;;;;;11.57;6.80;;;9.00;99.90;;;7.75;78.09;103274.06;4990343;28;20037;-78
2023/02/13 11:28:59;;;;;;;12.25;7.20;;;9.00;99.90;;;7.73;77.26;103267.03;4967501;28;20039;-78
2023/02/13 11:31:34;;;;;;;11.82;6.88;;;8.90;99.90;;;7.60;77.88;103279.19;4971731;28;20041;-77
2023/02/13 11:34:24;;;;;;;10.82;5.75;;;8.80;99.90;;;7.33;77.93;103272.91;4974157;28;20042;-78
2023/02/13 11:37:15;;;;;;;9.30;5.63;;;8.80;99.90;;;7.33;78.71;103280.75;4943269;28;20618;-78